EXS3ZW EGPE-BIKF
Flight info
| Callsign | EXS3ZW |
|---|---|
| Flight time | 1h 48m |
| Altitude | 36000 |
| Route | GARVA DCT STN DCT BILLY DCT BARKU DCT RATSU/M079F360 DCT ALDAN DCT ASRUN ASRUN3K |
| Aircraft | B738/M-SDE2E3FGHIRWXY/LB1 |
Departure
| Time | 2026-04-27 20:28 |
|---|---|
| Airport | Inverness Airport (EGPE) |
Arrival
| Time | 2026-04-27 22:16 |
|---|---|
| Airport | Keflavik International Airport (BIKF) |
| Time | Latitude | Longitude | Altitude | Speed | Heading |
|---|---|---|---|---|---|
| 2026-04-27 20:11 | 57.53885 | -4.06261 | 31 ft | 0 kts | 264° |
| 2026-04-27 20:22 | 57.53886 | -4.06235 | 31 ft | 4 kts | 279° |
| 2026-04-27 20:22 | 57.53884 | -4.06215 | 31 ft | 0 kts | 308° |
| 2026-04-27 20:25 | 57.53884 | -4.06216 | 33 ft | 0 kts | 310° |
| 2026-04-27 20:25 | 57.53891 | -4.06208 | 33 ft | 2 kts | 44° |
| 2026-04-27 20:25 | 57.53882 | -4.06193 | 31 ft | 2 kts | 164° |
| 2026-04-27 20:26 | 57.53856 | -4.06181 | 33 ft | 6 kts | 171° |
| 2026-04-27 20:26 | 57.53803 | -4.06171 | 32 ft | 9 kts | 164° |
| 2026-04-27 20:26 | 57.53755 | -4.06092 | 31 ft | 10 kts | 127° |
| 2026-04-27 20:26 | 57.53715 | -4.05963 | 29 ft | 13 kts | 107° |
| 2026-04-27 20:27 | 57.53744 | -4.05858 | 29 ft | 0 kts | 49° |
| 2026-04-27 20:27 | 57.53745 | -4.05857 | 31 ft | 0 kts | 49° |
| 2026-04-27 20:27 | 57.53892 | -4.05534 | 35 ft | 76 kts | 50° |
| 2026-04-27 20:27 | 57.54416 | -4.04393 | 37 ft | 153 kts | 49° |
| 2026-04-27 20:28 | 57.55223 | -4.02626 | 364 ft | 196 kts | 49° |
| 2026-04-27 20:28 | 57.56278 | -4.01091 | 1368 ft | 201 kts | 22° |
| 2026-04-27 20:28 | 57.57700 | -4.00709 | 2117 ft | 217 kts | 352° |
| 2026-04-27 20:28 | 57.58699 | -4.01225 | 2513 ft | 229 kts | 329° |
| 2026-04-27 20:29 | 57.59986 | -4.04228 | 3574 ft | 229 kts | 300° |
| 2026-04-27 20:29 | 57.60777 | -4.06916 | 3894 ft | 248 kts | 300° |
| 2026-04-27 20:29 | 57.61626 | -4.09812 | 4461 ft | 258 kts | 300° |
| 2026-04-27 20:29 | 57.62486 | -4.12763 | 5310 ft | 259 kts | 300° |
| 2026-04-27 20:30 | 57.63350 | -4.15728 | 6100 ft | 262 kts | 300° |
| 2026-04-27 20:30 | 57.64231 | -4.18746 | 6850 ft | 267 kts | 300° |
| 2026-04-27 20:30 | 57.65123 | -4.21795 | 7631 ft | 269 kts | 300° |
| 2026-04-27 20:30 | 57.66016 | -4.24841 | 8362 ft | 273 kts | 300° |
| 2026-04-27 20:31 | 57.66933 | -4.27970 | 9092 ft | 276 kts | 300° |
| 2026-04-27 20:31 | 57.67860 | -4.31131 | 9834 ft | 279 kts | 301° |
| 2026-04-27 20:31 | 57.68797 | -4.34331 | 10545 ft | 282 kts | 301° |
| 2026-04-27 20:31 | 57.69765 | -4.37626 | 10908 ft | 300 kts | 301° |
| 2026-04-27 20:32 | 57.70806 | -4.41172 | 11103 ft | 322 kts | 301° |
| 2026-04-27 20:32 | 57.71919 | -4.44969 | 11277 ft | 343 kts | 301° |
| 2026-04-27 20:32 | 57.73082 | -4.48950 | 11686 ft | 353 kts | 301° |
| 2026-04-27 20:32 | 57.74261 | -4.53002 | 12379 ft | 355 kts | 301° |
| 2026-04-27 20:33 | 57.75432 | -4.57035 | 13027 ft | 359 kts | 302° |
| 2026-04-27 20:33 | 57.76609 | -4.61096 | 13711 ft | 361 kts | 302° |
| 2026-04-27 20:33 | 57.77807 | -4.65238 | 14385 ft | 363 kts | 302° |
| 2026-04-27 20:33 | 57.79017 | -4.69423 | 15009 ft | 366 kts | 303° |
| 2026-04-27 20:34 | 57.80236 | -4.73642 | 15631 ft | 369 kts | 303° |
| 2026-04-27 20:34 | 57.81461 | -4.77889 | 16293 ft | 371 kts | 303° |
| 2026-04-27 20:34 | 57.82692 | -4.82164 | 16859 ft | 373 kts | 303° |
| 2026-04-27 20:34 | 57.83927 | -4.86462 | 17423 ft | 376 kts | 303° |
| 2026-04-27 20:35 | 57.85173 | -4.90804 | 18029 ft | 378 kts | 304° |
| 2026-04-27 20:35 | 57.86424 | -4.95171 | 18601 ft | 381 kts | 304° |
| 2026-04-27 20:35 | 57.87663 | -4.99506 | 19147 ft | 383 kts | 304° |
| 2026-04-27 20:35 | 57.88924 | -5.03930 | 19697 ft | 385 kts | 304° |
| 2026-04-27 20:36 | 57.90187 | -5.08369 | 20262 ft | 386 kts | 304° |
| 2026-04-27 20:36 | 57.91458 | -5.12845 | 20756 ft | 389 kts | 304° |
| 2026-04-27 20:36 | 57.92734 | -5.17344 | 21259 ft | 391 kts | 304° |
| 2026-04-27 20:36 | 57.94014 | -5.21871 | 21746 ft | 393 kts | 304° |
| 2026-04-27 20:37 | 57.95300 | -5.26423 | 22176 ft | 395 kts | 304° |
| 2026-04-27 20:37 | 57.96594 | -5.31012 | 22579 ft | 398 kts | 304° |
| 2026-04-27 20:37 | 57.97892 | -5.35628 | 23009 ft | 400 kts | 304° |
| 2026-04-27 20:37 | 57.99198 | -5.40281 | 23421 ft | 403 kts | 304° |
| 2026-04-27 20:38 | 58.00491 | -5.44899 | 23836 ft | 404 kts | 304° |
| 2026-04-27 20:38 | 58.01806 | -5.49603 | 24210 ft | 407 kts | 303° |
| 2026-04-27 20:38 | 58.03129 | -5.54348 | 24557 ft | 410 kts | 303° |
| 2026-04-27 20:38 | 58.04460 | -5.59119 | 24936 ft | 412 kts | 303° |
| 2026-04-27 20:39 | 58.05796 | -5.63927 | 25295 ft | 414 kts | 303° |
| 2026-04-27 20:39 | 58.07133 | -5.68754 | 25659 ft | 416 kts | 303° |
| 2026-04-27 20:39 | 58.08476 | -5.73613 | 25995 ft | 418 kts | 303° |
| 2026-04-27 20:39 | 58.09824 | -5.78495 | 26305 ft | 420 kts | 303° |
| 2026-04-27 20:40 | 58.11177 | -5.83417 | 26607 ft | 422 kts | 303° |
| 2026-04-27 20:40 | 58.12515 | -5.88286 | 26926 ft | 424 kts | 303° |
| 2026-04-27 20:40 | 58.13877 | -5.93251 | 27218 ft | 426 kts | 303° |
| 2026-04-27 20:40 | 58.15239 | -5.98223 | 27511 ft | 428 kts | 303° |
| 2026-04-27 20:41 | 58.16610 | -6.03243 | 27800 ft | 429 kts | 303° |
| 2026-04-27 20:41 | 58.17982 | -6.08276 | 28078 ft | 431 kts | 303° |
| 2026-04-27 20:41 | 58.19426 | -6.13248 | 28323 ft | 429 kts | 309° |
| 2026-04-27 20:41 | 58.21264 | -6.17646 | 28577 ft | 423 kts | 319° |
| 2026-04-27 20:42 | 58.23392 | -6.21454 | 28877 ft | 419 kts | 324° |
| 2026-04-27 20:42 | 58.25732 | -6.24723 | 29107 ft | 417 kts | 331° |
| 2026-04-27 20:42 | 58.28179 | -6.27691 | 29387 ft | 417 kts | 331° |
| 2026-04-27 20:42 | 58.30585 | -6.30627 | 29737 ft | 416 kts | 331° |
| 2026-04-27 20:43 | 58.33006 | -6.33605 | 30132 ft | 413 kts | 331° |
| 2026-04-27 20:43 | 58.35417 | -6.36586 | 30480 ft | 412 kts | 331° |
| 2026-04-27 20:43 | 58.37810 | -6.39560 | 30825 ft | 411 kts | 331° |
| 2026-04-27 20:43 | 58.40206 | -6.42546 | 31126 ft | 410 kts | 331° |
| 2026-04-27 20:44 | 58.42583 | -6.45519 | 31453 ft | 409 kts | 330° |
| 2026-04-27 20:44 | 58.44951 | -6.48486 | 31808 ft | 407 kts | 330° |
| 2026-04-27 20:44 | 58.47316 | -6.51453 | 32092 ft | 406 kts | 330° |
| 2026-04-27 20:44 | 58.49671 | -6.54413 | 32347 ft | 406 kts | 330° |
| 2026-04-27 20:45 | 58.51996 | -6.57341 | 32640 ft | 405 kts | 330° |
| 2026-04-27 20:45 | 58.54340 | -6.60301 | 32928 ft | 403 kts | 330° |
| 2026-04-27 20:45 | 58.56676 | -6.63252 | 33192 ft | 402 kts | 330° |
| 2026-04-27 20:45 | 58.59009 | -6.66203 | 33469 ft | 401 kts | 330° |
| 2026-04-27 20:46 | 58.61327 | -6.69139 | 33732 ft | 400 kts | 330° |
| 2026-04-27 20:46 | 58.63649 | -6.72084 | 33966 ft | 399 kts | 330° |
| 2026-04-27 20:46 | 58.65959 | -6.75023 | 34191 ft | 399 kts | 330° |
| 2026-04-27 20:46 | 58.68269 | -6.77968 | 34409 ft | 398 kts | 330° |
| 2026-04-27 20:47 | 58.70581 | -6.80918 | 34583 ft | 399 kts | 330° |
| 2026-04-27 20:47 | 58.72869 | -6.83843 | 34740 ft | 400 kts | 329° |
| 2026-04-27 20:47 | 58.75185 | -6.86807 | 34970 ft | 400 kts | 329° |
| 2026-04-27 20:47 | 58.77500 | -6.89776 | 35150 ft | 400 kts | 329° |
| 2026-04-27 20:48 | 58.79814 | -6.92747 | 35342 ft | 399 kts | 329° |
| 2026-04-27 20:48 | 58.81320 | -6.94684 | 35478 ft | 399 kts | 329° |
| 2026-04-27 20:48 | 58.84441 | -6.98701 | 35631 ft | 402 kts | 329° |
| 2026-04-27 20:48 | 58.86772 | -7.01711 | 35745 ft | 403 kts | 329° |
| 2026-04-27 20:49 | 58.89098 | -7.04720 | 35933 ft | 403 kts | 329° |
| 2026-04-27 20:49 | 58.91399 | -7.07699 | 36095 ft | 403 kts | 329° |
| 2026-04-27 20:49 | 58.93725 | -7.10715 | 36279 ft | 402 kts | 329° |
| 2026-04-27 20:49 | 58.96048 | -7.13732 | 36429 ft | 402 kts | 329° |
| 2026-04-27 20:50 | 59.00725 | -7.19818 | 36449 ft | 406 kts | 329° |
| 2026-04-27 20:50 | 59.05401 | -7.25929 | 36442 ft | 404 kts | 329° |
| 2026-04-27 20:51 | 59.10057 | -7.32034 | 36446 ft | 403 kts | 329° |
| 2026-04-27 20:51 | 59.14665 | -7.38095 | 36440 ft | 402 kts | 328° |
| 2026-04-27 20:52 | 59.19287 | -7.44193 | 36430 ft | 401 kts | 328° |
| 2026-04-27 20:52 | 59.23905 | -7.50305 | 36436 ft | 400 kts | 328° |
| 2026-04-27 20:53 | 59.28514 | -7.56430 | 36430 ft | 401 kts | 328° |
| 2026-04-27 20:53 | 59.33130 | -7.62582 | 36435 ft | 402 kts | 328° |
| 2026-04-27 20:54 | 59.40036 | -7.71829 | 36425 ft | 404 kts | 328° |
| 2026-04-27 20:55 | 59.44680 | -7.78069 | 36429 ft | 405 kts | 328° |
| 2026-04-27 20:55 | 59.49331 | -7.84340 | 36420 ft | 406 kts | 328° |
| 2026-04-27 20:56 | 59.53995 | -7.90644 | 36421 ft | 407 kts | 327° |
| 2026-04-27 20:56 | 59.58627 | -7.96937 | 36419 ft | 408 kts | 327° |
| 2026-04-27 20:57 | 59.63294 | -8.03309 | 36412 ft | 408 kts | 327° |
| 2026-04-27 20:57 | 59.67965 | -8.09690 | 36415 ft | 408 kts | 327° |
| 2026-04-27 20:58 | 59.72634 | -8.16092 | 36396 ft | 408 kts | 327° |
| 2026-04-27 20:58 | 59.77296 | -8.22504 | 36411 ft | 408 kts | 327° |
| 2026-04-27 20:59 | 59.81922 | -8.28897 | 36388 ft | 408 kts | 327° |
| 2026-04-27 20:59 | 59.86571 | -8.35346 | 36384 ft | 407 kts | 327° |
| 2026-04-27 21:00 | 59.91211 | -8.41803 | 36383 ft | 407 kts | 327° |
| 2026-04-27 21:00 | 59.95838 | -8.48267 | 36383 ft | 406 kts | 327° |
| 2026-04-27 21:01 | 60.00430 | -8.54701 | 36379 ft | 406 kts | 327° |
| 2026-04-27 21:01 | 60.05038 | -8.61181 | 36376 ft | 405 kts | 326° |
| 2026-04-27 21:02 | 60.09641 | -8.67686 | 36375 ft | 405 kts | 326° |
| 2026-04-27 21:02 | 60.14242 | -8.74201 | 36376 ft | 405 kts | 326° |
| 2026-04-27 21:03 | 60.18845 | -8.80739 | 36374 ft | 406 kts | 326° |
| 2026-04-27 21:03 | 60.23423 | -8.87271 | 36369 ft | 407 kts | 326° |
| 2026-04-27 21:04 | 60.28035 | -8.93870 | 36368 ft | 407 kts | 325° |
| 2026-04-27 21:04 | 60.32657 | -9.00509 | 36369 ft | 408 kts | 325° |
| 2026-04-27 21:05 | 60.37286 | -9.07181 | 36357 ft | 409 kts | 325° |
| 2026-04-27 21:05 | 60.41896 | -9.13849 | 36361 ft | 410 kts | 325° |
| 2026-04-27 21:06 | 60.46538 | -9.20589 | 36359 ft | 411 kts | 324° |
| 2026-04-27 21:06 | 60.51172 | -9.27345 | 36360 ft | 412 kts | 324° |
| 2026-04-27 21:07 | 60.55827 | -9.34150 | 36358 ft | 412 kts | 324° |
| 2026-04-27 21:07 | 60.60481 | -9.40978 | 36357 ft | 413 kts | 324° |
| 2026-04-27 21:08 | 60.65104 | -9.47784 | 36359 ft | 413 kts | 324° |
| 2026-04-27 21:08 | 60.69755 | -9.54662 | 36358 ft | 413 kts | 324° |
| 2026-04-27 21:09 | 60.74386 | -9.61533 | 36350 ft | 413 kts | 324° |
| 2026-04-27 21:09 | 60.79022 | -9.68437 | 36348 ft | 412 kts | 324° |
| 2026-04-27 21:10 | 60.83649 | -9.75360 | 36331 ft | 412 kts | 323° |
| 2026-04-27 21:10 | 60.88255 | -9.82267 | 36351 ft | 413 kts | 323° |
| 2026-04-27 21:11 | 60.92903 | -9.89259 | 36354 ft | 415 kts | 323° |
| 2026-04-27 21:11 | 60.97553 | -9.96321 | 36351 ft | 416 kts | 320° |
| 2026-04-27 21:12 | 61.01445 | -10.05106 | 36349 ft | 417 kts | 303° |
| 2026-04-27 21:12 | 61.04288 | -10.15551 | 36349 ft | 419 kts | 299° |
| 2026-04-27 21:13 | 61.07098 | -10.26005 | 36342 ft | 420 kts | 299° |
| 2026-04-27 21:13 | 61.09952 | -10.36573 | 36341 ft | 421 kts | 300° |
| 2026-04-27 21:14 | 61.12806 | -10.47158 | 36341 ft | 422 kts | 299° |
| 2026-04-27 21:14 | 61.15654 | -10.57773 | 36337 ft | 422 kts | 299° |
| 2026-04-27 21:15 | 61.18471 | -10.68334 | 36342 ft | 421 kts | 299° |
| 2026-04-27 21:15 | 61.21297 | -10.78976 | 36330 ft | 420 kts | 299° |
| 2026-04-27 21:16 | 61.24105 | -10.89596 | 36327 ft | 419 kts | 298° |
| 2026-04-27 21:16 | 61.26901 | -11.00228 | 36329 ft | 419 kts | 298° |
| 2026-04-27 21:17 | 61.29682 | -11.10842 | 36323 ft | 418 kts | 298° |
| 2026-04-27 21:17 | 61.32433 | -11.21393 | 36325 ft | 417 kts | 298° |
| 2026-04-27 21:18 | 61.35193 | -11.32027 | 36325 ft | 417 kts | 298° |
| 2026-04-27 21:18 | 61.37943 | -11.42681 | 36320 ft | 417 kts | 297° |
| 2026-04-27 21:19 | 61.40684 | -11.53351 | 36315 ft | 417 kts | 297° |
| 2026-04-27 21:19 | 61.43400 | -11.63969 | 36323 ft | 417 kts | 297° |
| 2026-04-27 21:20 | 61.47483 | -11.80035 | 36298 ft | 417 kts | 297° |
| 2026-04-27 21:20 | 61.49739 | -11.88960 | 36300 ft | 417 kts | 297° |
| 2026-04-27 21:21 | 61.52443 | -11.99706 | 36304 ft | 417 kts | 296° |
| 2026-04-27 21:21 | 61.55576 | -12.12221 | 36292 ft | 417 kts | 296° |
| 2026-04-27 21:22 | 61.57825 | -12.21248 | 36295 ft | 417 kts | 296° |
| 2026-04-27 21:22 | 61.60484 | -12.31970 | 36286 ft | 417 kts | 296° |
| 2026-04-27 21:23 | 61.63152 | -12.42784 | 36286 ft | 417 kts | 296° |
| 2026-04-27 21:23 | 61.65815 | -12.53627 | 36282 ft | 417 kts | 296° |
| 2026-04-27 21:24 | 61.68471 | -12.64498 | 36277 ft | 418 kts | 295° |
| 2026-04-27 21:24 | 61.71120 | -12.75398 | 36271 ft | 419 kts | 295° |
| 2026-04-27 21:25 | 61.73748 | -12.86261 | 36268 ft | 419 kts | 295° |
| 2026-04-27 21:25 | 61.76393 | -12.97246 | 36266 ft | 420 kts | 295° |
| 2026-04-27 21:26 | 61.79033 | -13.08267 | 36263 ft | 421 kts | 295° |
| 2026-04-27 21:26 | 61.81671 | -13.19338 | 36251 ft | 422 kts | 294° |
| 2026-04-27 21:27 | 61.84306 | -13.30457 | 36254 ft | 423 kts | 294° |
| 2026-04-27 21:27 | 61.86920 | -13.41539 | 36246 ft | 424 kts | 294° |
| 2026-04-27 21:28 | 61.89549 | -13.52742 | 36239 ft | 425 kts | 293° |
| 2026-04-27 21:28 | 61.92174 | -13.63983 | 36235 ft | 425 kts | 293° |
| 2026-04-27 21:29 | 61.94793 | -13.75264 | 36230 ft | 426 kts | 292° |
| 2026-04-27 21:29 | 61.97381 | -13.86466 | 36227 ft | 425 kts | 292° |
| 2026-04-27 21:30 | 61.99979 | -13.97771 | 36220 ft | 425 kts | 292° |
| 2026-04-27 21:30 | 62.02559 | -14.09057 | 36215 ft | 424 kts | 292° |
| 2026-04-27 21:31 | 62.05127 | -14.20353 | 36209 ft | 423 kts | 292° |
| 2026-04-27 21:31 | 62.07665 | -14.31570 | 36209 ft | 422 kts | 292° |
| 2026-04-27 21:32 | 62.10203 | -14.42854 | 36200 ft | 421 kts | 292° |
| 2026-04-27 21:32 | 62.12732 | -14.54153 | 36130 ft | 422 kts | 291° |
| 2026-04-27 21:33 | 62.15236 | -14.65404 | 36039 ft | 423 kts | 291° |
| 2026-04-27 21:33 | 62.17756 | -14.76784 | 35997 ft | 423 kts | 291° |
| 2026-04-27 21:34 | 62.20249 | -14.88091 | 35987 ft | 422 kts | 291° |
| 2026-04-27 21:34 | 62.22741 | -14.99469 | 35976 ft | 421 kts | 290° |
| 2026-04-27 21:35 | 62.25220 | -15.10847 | 35980 ft | 420 kts | 290° |
| 2026-04-27 21:35 | 62.27684 | -15.22213 | 35981 ft | 420 kts | 290° |
| 2026-04-27 21:36 | 62.30121 | -15.33512 | 35982 ft | 420 kts | 290° |
| 2026-04-27 21:36 | 62.32564 | -15.44918 | 36005 ft | 420 kts | 289° |
| 2026-04-27 21:37 | 62.34998 | -15.56332 | 36021 ft | 421 kts | 289° |
| 2026-04-27 21:37 | 62.37431 | -15.67809 | 36031 ft | 422 kts | 289° |
| 2026-04-27 21:38 | 62.39860 | -15.79324 | 36029 ft | 424 kts | 289° |
| 2026-04-27 21:38 | 62.42279 | -15.90857 | 36021 ft | 426 kts | 289° |
| 2026-04-27 21:39 | 62.44716 | -16.02538 | 36021 ft | 427 kts | 289° |
| 2026-04-27 21:39 | 62.47148 | -16.14269 | 36013 ft | 428 kts | 288° |
| 2026-04-27 21:40 | 62.49572 | -16.26027 | 36008 ft | 427 kts | 288° |
| 2026-04-27 21:40 | 62.51982 | -16.37775 | 36007 ft | 426 kts | 288° |
| 2026-04-27 21:41 | 62.54362 | -16.49449 | 35999 ft | 426 kts | 288° |
| 2026-04-27 21:41 | 62.56731 | -16.61189 | 36002 ft | 424 kts | 288° |
| 2026-04-27 21:42 | 62.59097 | -16.72906 | 35999 ft | 423 kts | 287° |
| 2026-04-27 21:42 | 62.61448 | -16.84604 | 35991 ft | 422 kts | 287° |
| 2026-04-27 21:43 | 62.63763 | -16.96214 | 35992 ft | 422 kts | 287° |
| 2026-04-27 21:43 | 62.66098 | -17.07991 | 35988 ft | 421 kts | 287° |
| 2026-04-27 21:44 | 62.68386 | -17.19616 | 35982 ft | 420 kts | 286° |
| 2026-04-27 21:44 | 62.70676 | -17.31309 | 35979 ft | 419 kts | 286° |
| 2026-04-27 21:45 | 62.72953 | -17.42992 | 35978 ft | 419 kts | 286° |
| 2026-04-27 21:45 | 62.75217 | -17.54697 | 35976 ft | 419 kts | 285° |
| 2026-04-27 21:46 | 62.77453 | -17.66323 | 35971 ft | 419 kts | 285° |
| 2026-04-27 21:46 | 62.79703 | -17.78071 | 35985 ft | 419 kts | 285° |
| 2026-04-27 21:47 | 62.81937 | -17.89850 | 35971 ft | 419 kts | 285° |
| 2026-04-27 21:47 | 62.84168 | -18.01640 | 35965 ft | 420 kts | 285° |
| 2026-04-27 21:48 | 62.86387 | -18.13434 | 35961 ft | 420 kts | 284° |
| 2026-04-27 21:48 | 62.88590 | -18.25227 | 35887 ft | 422 kts | 284° |
| 2026-04-27 21:49 | 62.90807 | -18.37163 | 35839 ft | 422 kts | 284° |
| 2026-04-27 21:49 | 62.93009 | -18.49085 | 35831 ft | 421 kts | 284° |
| 2026-04-27 21:50 | 62.95198 | -18.61003 | 35822 ft | 420 kts | 283° |
| 2026-04-27 21:50 | 62.96284 | -18.66951 | 35657 ft | 422 kts | 283° |
| 2026-04-27 21:50 | 62.97370 | -18.72899 | 35139 ft | 425 kts | 284° |
| 2026-04-27 21:51 | 62.98700 | -18.78756 | 34537 ft | 434 kts | 294° |
| 2026-04-27 21:51 | 63.00471 | -18.84183 | 34106 ft | 436 kts | 297° |
| 2026-04-27 21:51 | 63.02276 | -18.89496 | 33664 ft | 431 kts | 297° |
| 2026-04-27 21:51 | 63.04043 | -18.94786 | 33224 ft | 426 kts | 296° |
| 2026-04-27 21:52 | 63.05775 | -19.00037 | 32791 ft | 422 kts | 296° |
| 2026-04-27 21:52 | 63.07484 | -19.05267 | 32352 ft | 418 kts | 296° |
| 2026-04-27 21:52 | 63.09173 | -19.10449 | 31926 ft | 414 kts | 296° |
| 2026-04-27 21:52 | 63.10823 | -19.15524 | 31515 ft | 411 kts | 296° |
| 2026-04-27 21:53 | 63.12477 | -19.20625 | 31168 ft | 405 kts | 296° |
| 2026-04-27 21:53 | 63.14107 | -19.25658 | 30837 ft | 399 kts | 295° |
| 2026-04-27 21:53 | 63.15712 | -19.30628 | 30504 ft | 397 kts | 295° |
| 2026-04-27 21:53 | 63.17316 | -19.35626 | 30203 ft | 401 kts | 295° |
| 2026-04-27 21:54 | 63.18941 | -19.40701 | 29885 ft | 406 kts | 295° |
| 2026-04-27 21:54 | 63.20572 | -19.45799 | 29553 ft | 404 kts | 295° |
| 2026-04-27 21:54 | 63.22189 | -19.50849 | 29227 ft | 400 kts | 295° |
| 2026-04-27 21:54 | 63.23794 | -19.55865 | 28900 ft | 397 kts | 295° |
| 2026-04-27 21:55 | 63.25364 | -19.60787 | 28578 ft | 394 kts | 295° |
| 2026-04-27 21:55 | 63.26941 | -19.65741 | 28254 ft | 392 kts | 295° |
| 2026-04-27 21:55 | 63.28507 | -19.70681 | 27938 ft | 390 kts | 295° |
| 2026-04-27 21:55 | 63.30065 | -19.75605 | 27605 ft | 388 kts | 295° |
| 2026-04-27 21:56 | 63.31612 | -19.80506 | 27282 ft | 387 kts | 295° |
| 2026-04-27 21:56 | 63.34686 | -19.90274 | 26635 ft | 384 kts | 294° |
| 2026-04-27 21:56 | 63.36215 | -19.95150 | 26311 ft | 383 kts | 294° |
| 2026-04-27 21:57 | 63.37728 | -19.99976 | 25912 ft | 378 kts | 294° |
| 2026-04-27 21:57 | 63.39205 | -20.04697 | 25493 ft | 376 kts | 294° |
| 2026-04-27 21:57 | 63.40701 | -20.09508 | 25078 ft | 379 kts | 294° |
| 2026-04-27 21:57 | 63.42203 | -20.14349 | 24661 ft | 381 kts | 294° |
| 2026-04-27 21:58 | 63.43714 | -20.19220 | 24239 ft | 381 kts | 294° |
| 2026-04-27 21:58 | 63.45217 | -20.24066 | 23812 ft | 379 kts | 294° |
| 2026-04-27 21:58 | 63.46710 | -20.28891 | 23396 ft | 377 kts | 294° |
| 2026-04-27 21:58 | 63.48197 | -20.33707 | 22960 ft | 374 kts | 294° |
| 2026-04-27 21:59 | 63.49665 | -20.38471 | 22537 ft | 372 kts | 294° |
| 2026-04-27 21:59 | 63.51125 | -20.43225 | 22110 ft | 369 kts | 294° |
| 2026-04-27 21:59 | 63.52554 | -20.47883 | 21720 ft | 366 kts | 293° |
| 2026-04-27 21:59 | 63.53989 | -20.52573 | 21321 ft | 363 kts | 293° |
| 2026-04-27 22:00 | 63.55411 | -20.57230 | 20916 ft | 361 kts | 293° |
| 2026-04-27 22:00 | 63.56713 | -20.61946 | 20514 ft | 351 kts | 287° |
| 2026-04-27 22:00 | 63.57795 | -20.66797 | 20116 ft | 345 kts | 284° |
| 2026-04-27 22:00 | 63.58820 | -20.71641 | 19721 ft | 342 kts | 284° |
| 2026-04-27 22:01 | 63.59841 | -20.76459 | 19320 ft | 341 kts | 284° |
| 2026-04-27 22:01 | 63.60872 | -20.81242 | 18922 ft | 340 kts | 284° |
| 2026-04-27 22:01 | 63.61909 | -20.86001 | 18520 ft | 338 kts | 284° |
| 2026-04-27 22:01 | 63.62935 | -20.90665 | 18127 ft | 336 kts | 284° |
| 2026-04-27 22:02 | 63.63973 | -20.95366 | 17727 ft | 335 kts | 284° |
| 2026-04-27 22:02 | 63.65002 | -21.00040 | 17328 ft | 333 kts | 284° |
| 2026-04-27 22:02 | 63.66028 | -21.04705 | 16926 ft | 331 kts | 284° |
| 2026-04-27 22:02 | 63.67128 | -21.09296 | 16518 ft | 339 kts | 291° |
| 2026-04-27 22:03 | 63.68552 | -21.13589 | 16131 ft | 345 kts | 297° |
| 2026-04-27 22:03 | 63.70078 | -21.17727 | 15734 ft | 345 kts | 298° |
| 2026-04-27 22:03 | 63.71621 | -21.21862 | 15334 ft | 344 kts | 298° |
| 2026-04-27 22:03 | 63.73127 | -21.25954 | 14942 ft | 342 kts | 298° |
| 2026-04-27 22:04 | 63.74630 | -21.30111 | 14542 ft | 341 kts | 297° |
| 2026-04-27 22:04 | 63.76116 | -21.34278 | 14137 ft | 340 kts | 297° |
| 2026-04-27 22:04 | 63.77590 | -21.38440 | 13742 ft | 339 kts | 297° |
| 2026-04-27 22:04 | 63.79055 | -21.42604 | 13341 ft | 338 kts | 297° |
| 2026-04-27 22:05 | 63.80513 | -21.46761 | 12948 ft | 337 kts | 297° |
| 2026-04-27 22:05 | 63.81967 | -21.50918 | 12544 ft | 336 kts | 297° |
| 2026-04-27 22:05 | 63.83418 | -21.55072 | 12146 ft | 335 kts | 297° |
| 2026-04-27 22:05 | 63.84860 | -21.59209 | 11751 ft | 335 kts | 297° |
| 2026-04-27 22:06 | 63.86285 | -21.63299 | 11352 ft | 335 kts | 298° |
| 2026-04-27 22:06 | 63.87732 | -21.67431 | 10948 ft | 332 kts | 298° |
| 2026-04-27 22:06 | 63.89156 | -21.71487 | 10537 ft | 325 kts | 299° |
| 2026-04-27 22:06 | 63.90544 | -21.75455 | 10127 ft | 319 kts | 299° |
| 2026-04-27 22:07 | 63.91905 | -21.79355 | 9791 ft | 311 kts | 300° |
| 2026-04-27 22:07 | 63.93221 | -21.83184 | 9458 ft | 304 kts | 299° |
| 2026-04-27 22:07 | 63.94510 | -21.86956 | 9133 ft | 300 kts | 300° |
| 2026-04-27 22:07 | 63.95789 | -21.90712 | 8807 ft | 300 kts | 300° |
| 2026-04-27 22:08 | 63.97064 | -21.94453 | 8488 ft | 298 kts | 300° |
| 2026-04-27 22:08 | 63.98318 | -21.98128 | 8167 ft | 298 kts | 300° |
| 2026-04-27 22:08 | 63.99596 | -22.01896 | 7891 ft | 303 kts | 300° |
| 2026-04-27 22:08 | 64.00891 | -22.05723 | 7597 ft | 305 kts | 300° |
| 2026-04-27 22:09 | 64.02185 | -22.09531 | 7299 ft | 303 kts | 301° |
| 2026-04-27 22:09 | 64.03479 | -22.13310 | 6991 ft | 301 kts | 301° |
| 2026-04-27 22:09 | 64.04760 | -22.17068 | 6693 ft | 299 kts | 300° |
| 2026-04-27 22:09 | 64.06026 | -22.20821 | 6394 ft | 298 kts | 300° |
| 2026-04-27 22:10 | 64.07418 | -22.24359 | 6072 ft | 303 kts | 311° |
| 2026-04-27 22:10 | 64.08467 | -22.26458 | 5867 ft | 303 kts | 313° |
| 2026-04-27 22:10 | 64.10592 | -22.30680 | 5427 ft | 302 kts | 311° |
| 2026-04-27 22:10 | 64.12131 | -22.33852 | 5051 ft | 303 kts | 311° |
| 2026-04-27 22:11 | 64.13690 | -22.37116 | 4655 ft | 305 kts | 311° |
| 2026-04-27 22:11 | 64.15065 | -22.40744 | 4201 ft | 296 kts | 290° |
| 2026-04-27 22:11 | 64.15508 | -22.45056 | 3811 ft | 265 kts | 259° |
| 2026-04-27 22:11 | 64.15304 | -22.49100 | 3386 ft | 247 kts | 248° |
| 2026-04-27 22:12 | 64.14801 | -22.52709 | 3011 ft | 232 kts | 240° |
| 2026-04-27 22:12 | 64.14247 | -22.56106 | 2629 ft | 224 kts | 240° |
| 2026-04-27 22:12 | 64.13581 | -22.59122 | 2241 ft | 204 kts | 219° |
| 2026-04-27 22:12 | 64.12447 | -22.60365 | 2114 ft | 171 kts | 184° |
| 2026-04-27 22:13 | 64.11315 | -22.60677 | 1932 ft | 159 kts | 181° |
| 2026-04-27 22:13 | 64.10234 | -22.60619 | 1512 ft | 155 kts | 173° |
| 2026-04-27 22:13 | 64.09166 | -22.60520 | 1208 ft | 153 kts | 171° |
| 2026-04-27 22:13 | 64.08114 | -22.60520 | 1182 ft | 156 kts | 177° |
| 2026-04-27 22:14 | 64.07015 | -22.60669 | 1313 ft | 146 kts | 178° |
| 2026-04-27 22:14 | 64.06035 | -22.60640 | 1281 ft | 138 kts | 173° |
| 2026-04-27 22:14 | 64.05109 | -22.60645 | 1345 ft | 127 kts | 175° |
| 2026-04-27 22:14 | 64.04225 | -22.60643 | 1160 ft | 125 kts | 171° |
| 2026-04-27 22:15 | 64.03371 | -22.60584 | 1139 ft | 122 kts | 174° |
| 2026-04-27 22:15 | 64.02516 | -22.60585 | 933 ft | 127 kts | 173° |
| 2026-04-27 22:15 | 64.01632 | -22.60599 | 741 ft | 130 kts | 173° |
| 2026-04-27 22:15 | 64.00711 | -22.60563 | 565 ft | 133 kts | 175° |
| 2026-04-27 22:16 | 63.99781 | -22.60546 | 326 ft | 134 kts | 179° |
| 2026-04-27 22:16 | 63.98878 | -22.60536 | 194 ft | 124 kts | 178° |
| 2026-04-27 22:16 | 63.98106 | -22.60533 | 170 ft | 93 kts | 180° |
| 2026-04-27 22:16 | 63.97633 | -22.60540 | 172 ft | 47 kts | 182° |
| 2026-04-27 22:17 | 63.97445 | -22.60653 | 170 ft | 22 kts | 243° |
| 2026-04-27 22:17 | 63.97448 | -22.60831 | 166 ft | 6 kts | 283° |
| 2026-04-27 22:17 | 63.97454 | -22.60895 | 165 ft | 0 kts | 282° |
| 2026-04-27 22:17 | 63.97463 | -22.60914 | 165 ft | 5 kts | 315° |
| 2026-04-27 22:18 | 63.97530 | -22.60937 | 165 ft | 13 kts | 8° |
| 2026-04-27 22:18 | 63.97615 | -22.60942 | 167 ft | 12 kts | 354° |
| 2026-04-27 22:18 | 63.97699 | -22.60933 | 168 ft | 12 kts | 359° |
| 2026-04-27 22:18 | 63.97780 | -22.60942 | 169 ft | 12 kts | 0° |
| 2026-04-27 22:19 | 63.97861 | -22.60941 | 169 ft | 12 kts | 0° |
| 2026-04-27 22:19 | 63.97947 | -22.60939 | 168 ft | 12 kts | 0° |
| 2026-04-27 22:19 | 63.98033 | -22.60937 | 167 ft | 12 kts | 0° |
| 2026-04-27 22:19 | 63.98116 | -22.60935 | 166 ft | 12 kts | 1° |
| 2026-04-27 22:20 | 63.98198 | -22.60940 | 164 ft | 13 kts | 358° |
| 2026-04-27 22:20 | 63.98297 | -22.60939 | 164 ft | 14 kts | 1° |
| 2026-04-27 22:20 | 63.98373 | -22.60939 | 165 ft | 3 kts | 358° |
| 2026-04-27 22:20 | 63.98381 | -22.60939 | 165 ft | 1 kts | 359° |
| 2026-04-27 22:21 | 63.98385 | -22.60939 | 165 ft | 1 kts | 359° |
| 2026-04-27 22:21 | 63.98390 | -22.60939 | 165 ft | 1 kts | 359° |
| 2026-04-27 22:21 | 63.98395 | -22.60940 | 165 ft | 0 kts | 359° |
| 2026-04-27 22:22 | 63.98404 | -22.60940 | 165 ft | 3 kts | 359° |
| 2026-04-27 22:22 | 63.98450 | -22.60941 | 165 ft | 10 kts | 359° |
| 2026-04-27 22:22 | 63.98543 | -22.60944 | 164 ft | 17 kts | 359° |
| 2026-04-27 22:23 | 63.98682 | -22.60945 | 162 ft | 21 kts | 0° |
| 2026-04-27 22:23 | 63.98827 | -22.60941 | 162 ft | 21 kts | 1° |
| 2026-04-27 22:23 | 63.98969 | -22.60936 | 166 ft | 20 kts | 1° |
| 2026-04-27 22:23 | 63.99108 | -22.60941 | 161 ft | 20 kts | 351° |
| 2026-04-27 22:24 | 63.99173 | -22.61181 | 155 ft | 20 kts | 270° |
| 2026-04-27 22:24 | 63.99173 | -22.61506 | 148 ft | 22 kts | 269° |
| 2026-04-27 22:24 | 63.99170 | -22.61824 | 141 ft | 16 kts | 272° |
| 2026-04-27 22:24 | 63.99235 | -22.61984 | 139 ft | 14 kts | 354° |
| 2026-04-27 22:25 | 63.99304 | -22.61990 | 139 ft | 9 kts | 0° |
| 2026-04-27 22:25 | 63.99326 | -22.62030 | 139 ft | 4 kts | 275° |
| 2026-04-27 22:25 | 63.99328 | -22.62092 | 139 ft | 4 kts | 272° |
| 2026-04-27 22:25 | 63.99327 | -22.62145 | 139 ft | 3 kts | 269° |
| 2026-04-27 22:26 | 63.99327 | -22.62155 | 139 ft | 0 kts | 269° |
| 2026-04-27 22:33 | 63.99327 | -22.62154 | 139 ft | 0 kts | 269° |
| 2026-04-27 22:44 | 63.99327 | -22.62153 | 139 ft | 0 kts | 269° |